Time;durP1;ratioP1;P1;durP2;ratioP2;P2;SDS_P1;SDS_P2;PMS_P1;PMS_P2;Temp;Humidity;BMP_temperature;BMP_pressure;BME280_temperature;BME280_humidity;BME280_pressure;Samples;Min_cycle;Max_cycle;Signal;HPM_P1;HPM_P2
2021/04/06 00:01:24;;;;;;;8.30;2.70;;;-1.10;99.90;;;;;;5045860;28;20373;-79
2021/04/06 00:03:51;;;;;;;7.93;2.60;;;-1.20;99.90;;;;;;5050169;28;20041;-77
2021/04/06 00:06:19;;;;;;;5.93;2.23;;;-1.10;99.90;;;;;;5049611;28;20041;-77
2021/04/06 00:08:46;;;;;;;6.30;2.50;;;-1.20;99.90;;;;;;5049726;28;20500;-78
2021/04/06 00:11:14;;;;;;;4.93;2.63;;;-1.30;99.90;;;;;;5038258;28;20041;-77
2021/04/06 00:13:39;;;;;;;6.80;2.93;;;-1.20;99.90;;;;;;5045441;28;20044;-78
2021/04/06 00:16:09;;;;;;;7.93;3.07;;;-1.30;99.90;;;;;;5049358;28;20041;-78
2021/04/06 00:18:35;;;;;;;6.63;2.70;;;-1.30;99.90;;;;;;5050072;28;20017;-79
2021/04/06 00:21:03;;;;;;;5.03;2.57;;;-1.30;99.90;;;;;;5049545;28;20322;-78
2021/04/06 00:23:31;;;;;;;5.60;2.77;;;-1.40;99.90;;;;;;5047088;28;20024;-78
2021/04/06 00:25:58;;;;;;;4.00;2.57;;;-1.30;99.90;;;;;;5049013;28;20020;-78
2021/04/06 00:28:28;;;;;;;6.63;2.53;;;-1.30;99.90;;;;;;5050505;28;20379;-79
2021/04/06 00:30:55;;;;;;;4.85;2.80;;;-1.40;99.90;;;;;;5051003;28;20029;-76
2021/04/06 00:33:51;;;;;;;4.17;2.77;;;-1.30;99.90;;;;;;5050642;28;20028;-78
2021/04/06 00:36:25;;;;;;;6.43;2.67;;;-1.30;99.90;;;;;;4943319;28;20046;-79
2021/04/06 00:38:53;;;;;;;5.87;2.40;;;-1.30;99.90;;;;;;4956795;28;20038;-77
2021/04/06 00:41:21;;;;;;;5.10;2.23;;;-1.30;99.90;;;;;;4958954;28;20043;-77
2021/04/06 00:43:47;;;;;;;6.53;2.43;;;-1.40;99.90;;;;;;4957083;28;20894;-77
2021/04/06 00:46:21;;;;;;;4.67;2.30;;;-1.40;99.90;;;;;;4950869;28;20044;-77
2021/04/06 00:48:49;;;;;;;3.40;2.20;;;-1.40;99.90;;;;;;4952713;28;20055;-77
2021/04/06 00:51:18;;;;;;;6.37;2.27;;;-1.40;99.90;;;;;;4961882;28;20037;-77
2021/04/06 00:53:59;;;;;;;5.43;2.53;;;-1.40;99.90;;;;;;4957948;28;20046;-78
2021/04/06 00:56:28;;;;;;;6.33;2.50;;;-1.40;99.90;;;;;;4955371;28;20074;-77
2021/04/06 00:58:56;;;;;;;4.67;2.33;;;-1.40;99.90;;;;;;4954897;28;20075;-79
2021/04/06 01:01:39;;;;;;;7.03;2.53;;;-1.40;99.90;;;;;;4951849;28;20544;-78
2021/04/06 01:04:08;;;;;;;5.47;1.97;;;-1.40;99.90;;;;;;4959897;28;20031;-79
2021/04/06 01:06:51;;;;;;;7.25;2.40;;;-1.40;99.90;;;;;;4963838;28;20067;-79
2021/04/06 01:09:17;;;;;;;5.53;2.50;;;-1.40;99.90;;;;;;4948912;28;20050;-77
2021/04/06 01:11:44;;;;;;;4.57;2.30;;;-1.50;99.90;;;;;;4965214;28;20053;-78
2021/04/06 01:14:15;;;;;;;6.40;2.53;;;-1.50;99.90;;;;;;5048291;28;20079;-77
2021/04/06 01:16:42;;;;;;;7.03;2.83;;;-1.50;99.90;;;;;;5048241;28;20473;-77
2021/04/06 01:19:08;;;;;;;5.73;2.60;;;-1.50;99.90;;;;;;5044166;28;20036;-78
2021/04/06 01:21:34;;;;;;;9.70;2.90;;;-1.50;99.90;;;;;;5048529;28;20037;-78
2021/04/06 01:24:06;;;;;;;7.63;2.50;;;-1.50;99.90;;;;;;5048028;28;20029;-78
2021/04/06 01:26:32;;;;;;;5.30;2.90;;;-1.50;99.90;;;;;;5048971;28;20021;-78
2021/04/06 01:28:58;;;;;;;8.37;2.50;;;-1.50;99.90;;;;;;5043379;28;20475;-78
2021/04/06 01:31:25;;;;;;;5.00;3.27;;;-1.60;99.90;;;;;;5039549;28;20056;-78
2021/04/06 01:33:50;;;;;;;6.27;2.70;;;-1.70;99.90;;;;;;5048248;28;20546;-78
2021/04/06 01:36:16;;;;;;;6.43;2.90;;;-1.60;99.90;;;;;;5051702;28;20104;-79
2021/04/06 01:38:42;;;;;;;6.70;2.40;;;-1.70;99.90;;;;;;5047551;28;20100;-78
2021/04/06 01:41:08;;;;;;;9.87;2.93;;;-1.70;99.90;;;;;;5048527;28;20036;-78
2021/04/06 01:43:38;;;;;;;4.70;2.70;;;-1.70;99.90;;;;;;5048438;28;20032;-77
2021/04/06 01:46:44;;;;;;;3.60;2.40;;;-1.70;99.90;;;;;;5048061;28;20162;-77
2021/04/06 01:48:58;;;;;;;8.93;3.23;;;-1.80;99.90;;;;;;5046498;28;20087;-79
2021/04/06 01:51:25;;;;;;;8.20;2.60;;;-1.80;99.90;;;;;;5051989;28;20033;-78
2021/04/06 01:53:50;;;;;;;9.70;3.23;;;-1.80;99.90;;;;;;5052134;28;20101;-78
2021/04/06 01:56:28;;;;;;;8.73;3.57;;;-1.80;99.90;;;;;;5052257;28;20056;-78
2021/04/06 01:59:01;;;;;;;5.60;2.57;;;-1.80;99.90;;;;;;5052206;28;20096;-77
2021/04/06 02:01:28;;;;;;;6.10;2.80;;;-1.90;99.90;;;;;;5028690;28;20051;-78
2021/04/06 02:04:06;;;;;;;6.47;2.90;;;-1.90;99.90;;;;;;5052309;28;20024;-78
2021/04/06 02:06:37;;;;;;;9.27;3.20;;;-2.00;99.90;;;;;;5052064;28;20422;-77
2021/04/06 02:09:10;;;;;;;10.03;3.07;;;-2.00;99.90;;;;;;5054787;28;20040;-79
2021/04/06 02:11:38;;;;;;;6.37;2.80;;;-2.00;99.90;;;;;;5045039;28;20049;-77
2021/04/06 02:14:06;;;;;;;7.33;3.20;;;-2.00;99.90;;;;;;5051838;28;20017;-77
2021/04/06 02:16:53;;;;;;;6.33;2.60;;;-2.00;99.90;;;;;;5051846;28;20060;-78
2021/04/06 02:19:23;;;;;;;6.80;3.27;;;-2.00;99.90;;;;;;5052227;28;20021;-77
2021/04/06 02:21:54;;;;;;;6.70;3.03;;;-2.10;99.90;;;;;;5051557;28;20103;-79
2021/04/06 02:24:40;;;;;;;8.10;3.27;;;-2.10;99.90;;;;;;5050382;28;20048;-76
2021/04/06 02:27:15;;;;;;;7.33;2.83;;;-2.10;99.90;;;;;;5044937;28;20071;-78
2021/04/06 02:29:46;;;;;;;4.87;3.07;;;-2.10;99.90;;;;;;5045931;28;20103;-77
2021/04/06 02:32:16;;;;;;;7.50;3.00;;;-2.10;99.90;;;;;;5051294;28;20025;-78
2021/04/06 02:34:45;;;;;;;6.80;3.20;;;-2.10;99.90;;;;;;5033143;28;20064;-77
2021/04/06 02:37:22;;;;;;;9.00;3.27;;;-2.10;99.90;;;;;;5051433;28;20845;-77
2021/04/06 02:39:49;;;;;;;9.67;3.63;;;-2.10;99.90;;;;;;5047037;28;20078;-77
2021/04/06 02:42:25;;;;;;;6.30;3.87;;;-2.10;99.90;;;;;;5055596;28;20025;-79
2021/04/06 02:45:13;;;;;;;5.17;2.87;;;-2.10;99.90;;;;;;5034892;28;20099;-79
2021/04/06 02:47:47;;;;;;;6.47;3.70;;;-2.10;99.90;;;;;;5047322;28;20040;-78
2021/04/06 02:50:18;;;;;;;6.10;2.67;;;-2.10;99.90;;;;;;5045310;28;20039;-76
2021/04/06 02:52:44;;;;;;;9.50;3.13;;;-2.10;99.90;;;;;;5050230;28;20032;-78
2021/04/06 02:55:12;;;;;;;8.10;3.33;;;-2.10;99.90;;;;;;5050474;28;20047;-77
2021/04/06 02:57:48;;;;;;;6.63;3.57;;;-2.10;99.90;;;;;;5051672;28;20017;-78
2021/04/06 03:00:28;;;;;;;7.77;3.33;;;-2.10;99.90;;;;;;5050003;28;20116;-79
2021/04/06 03:02:58;;;;;;;10.83;3.60;;;-2.20;99.90;;;;;;5051117;28;20094;-78
2021/04/06 03:05:30;;;;;;;;;;;-2.10;99.90;;;;;;5051256;28;20033;-79
2021/04/06 03:07:56;;;;;;;11.40;3.60;;;-2.10;99.90;;;;;;5050654;28;20363;-78
2021/04/06 03:10:22;;;;;;;7.63;3.93;;;-2.10;99.90;;;;;;5048390;28;20535;-77
2021/04/06 03:12:49;;;;;;;8.70;3.80;;;-2.10;99.90;;;;;;5048197;28;20083;-77
2021/04/06 03:15:27;;;;;;;5.97;3.33;;;-2.20;99.90;;;;;;5046812;28;20064;-78
2021/04/06 03:17:55;;;;;;;5.97;3.30;;;-2.20;99.90;;;;;;5050577;28;20021;-76
2021/04/06 03:20:23;;;;;;;6.63;3.70;;;-2.20;99.90;;;;;;5050799;28;20029;-77
2021/04/06 03:22:49;;;;;;;9.73;4.03;;;-2.10;99.90;;;;;;5050900;28;20043;-78
2021/04/06 03:25:15;;;;;;;5.23;2.50;;;-2.10;99.90;;;;;;5050452;28;20037;-78
2021/04/06 03:27:46;;;;;;;7.20;3.27;;;-2.10;99.90;;;;;;5050989;28;20087;-78
2021/04/06 03:30:14;;;;;;;5.90;3.30;;;-2.10;99.90;;;;;;5049044;28;20041;-79
2021/04/06 03:32:41;;;;;;;5.20;2.57;;;-2.10;99.90;;;;;;5050278;28;20480;-78
2021/04/06 03:35:08;;;;;;;7.03;2.70;;;-2.20;99.90;;;;;;5046535;28;20109;-78
2021/04/06 03:37:35;;;;;;;5.40;3.23;;;-2.20;99.90;;;;;;5050467;28;20087;-78
2021/04/06 03:40:02;;;;;;;9.73;3.10;;;-2.10;99.90;;;;;;5050572;28;20039;-77
2021/04/06 03:42:27;;;;;;;6.17;3.30;;;-2.10;99.90;;;;;;5050800;28;20108;-78
2021/04/06 03:45:22;;;;;;;7.23;3.20;;;-2.10;99.90;;;;;;5044840;28;20691;-76
2021/04/06 03:47:58;;;;;;;6.90;3.30;;;-2.10;99.90;;;;;;4949829;29;20511;-79
2021/04/06 03:50:39;;;;;;;6.50;2.23;;;-2.10;99.90;;;;;;4939082;29;20090;-78
2021/04/06 03:53:10;;;;;;;4.33;2.33;;;-2.20;99.90;;;;;;4949647;29;20050;-76
2021/04/06 03:55:37;;;;;;;6.17;3.10;;;-2.20;99.90;;;;;;4949673;29;20491;-77
2021/04/06 03:58:13;;;;;;;5.43;2.80;;;-2.20;99.90;;;;;;4947912;28;20468;-77
2021/04/06 04:00:40;;;;;;;5.93;2.43;;;-2.20;99.90;;;;;;4948844;28;20031;-77
2021/04/06 04:03:06;;;;;;;5.23;2.43;;;-2.30;99.90;;;;;;4948215;29;20110;-78
2021/04/06 04:05:32;;;;;;;4.53;2.57;;;-2.30;99.90;;;;;;4948643;29;20118;-78
2021/04/06 04:07:58;;;;;;;5.77;2.67;;;-2.30;99.90;;;;;;4949153;29;20031;-77
2021/04/06 04:10:24;;;;;;;6.47;2.70;;;-2.30;99.90;;;;;;4948266;29;20035;-77
2021/04/06 04:12:49;;;;;;;3.77;2.43;;;-2.40;99.90;;;;;;4949484;28;20032;-77
2021/04/06 04:15:15;;;;;;;10.47;3.20;;;-2.40;99.90;;;;;;4948950;28;20152;-78
2021/04/06 04:17:41;;;;;;;4.43;2.37;;;-2.40;99.90;;;;;;4951501;28;20046;-79
2021/04/06 04:20:10;;;;;;;6.57;2.67;;;-2.40;99.90;;;;;;4950029;29;20795;-78
2021/04/06 04:22:35;;;;;;;8.52;3.17;;;-2.50;99.90;;;;;;4948621;29;20118;-77
2021/04/06 04:25:05;;;;;;;6.90;3.03;;;-2.50;99.90;;;;;;5032461;28;20540;-76
2021/04/06 04:27:30;;;;;;;4.93;2.63;;;-2.50;99.90;;;;;;5049950;28;20453;-77
2021/04/06 04:29:56;;;;;;;5.20;2.67;;;-2.50;99.90;;;;;;5031806;28;20071;-77
2021/04/06 04:32:21;;;;;;;5.33;2.33;;;-2.60;99.90;;;;;;5049888;28;20128;-77
2021/04/06 04:34:47;;;;;;;5.33;2.93;;;-2.60;99.90;;;;;;5050099;28;20392;-77
2021/04/06 04:37:12;;;;;;;5.20;2.90;;;-2.60;99.90;;;;;;5031841;28;20025;-77
2021/04/06 04:39:38;;;;;;;5.27;2.80;;;-2.70;99.90;;;;;;5050025;28;20029;-76
2021/04/06 04:42:04;;;;;;;6.10;2.50;;;-2.60;99.90;;;;;;5049136;28;20037;-77
2021/04/06 04:44:30;;;;;;;6.87;2.90;;;-2.60;99.90;;;;;;5048498;28;20029;-78
2021/04/06 04:46:55;;;;;;;4.90;2.70;;;-2.60;99.90;;;;;;5049396;28;20029;-77
2021/04/06 04:49:21;;;;;;;6.07;3.17;;;-2.60;99.90;;;;;;5041229;28;20088;-78
2021/04/06 04:51:46;;;;;;;8.17;3.57;;;-2.60;99.90;;;;;;5046127;28;20036;-78
2021/04/06 04:54:12;;;;;;;6.07;2.60;;;-2.60;99.90;;;;;;5049810;28;20033;-77
2021/04/06 04:56:37;;;;;;;6.23;2.40;;;-2.60;99.90;;;;;;5054688;28;20031;-79
2021/04/06 04:59:03;;;;;;;7.13;3.00;;;-2.60;99.90;;;;;;5050322;28;20147;-77
2021/04/06 05:01:29;;;;;;;6.33;2.77;;;-2.60;99.90;;;;;;5049905;28;20095;-76
2021/04/06 05:03:54;;;;;;;10.13;2.83;;;-2.60;99.90;;;;;;5049104;28;20138;-77
2021/04/06 05:06:20;;;;;;;6.73;2.67;;;-2.60;99.90;;;;;;5049427;28;20040;-78
2021/04/06 05:08:45;;;;;;;2.90;1.33;;;-2.60;99.90;;;;;;5048828;28;20032;-78
2021/04/06 05:11:11;;;;;;;6.50;3.00;;;-2.60;99.90;;;;;;5029761;28;20033;-76
2021/04/06 05:13:36;;;;;;;7.97;3.07;;;-2.60;99.90;;;;;;5048915;28;20171;-78
2021/04/06 05:16:02;;;;;;;4.73;2.80;;;-2.50;99.90;;;;;;5048428;28;20115;-78
2021/04/06 05:18:28;;;;;;;8.37;2.53;;;-2.50;99.90;;;;;;5047760;28;20025;-79
2021/04/06 05:20:53;;;;;;;8.07;3.20;;;-2.50;99.90;;;;;;5048997;28;20072;-77
2021/04/06 05:23:19;;;;;;;7.07;2.77;;;-2.50;99.90;;;;;;5048442;28;20411;-79
2021/04/06 05:25:46;;;;;;;7.13;2.50;;;-2.40;99.90;;;;;;5031039;28;20747;-79
2021/04/06 05:28:11;;;;;;;3.90;2.27;;;-2.40;99.90;;;;;;5049307;28;20025;-77
2021/04/06 05:30:37;;;;;;;7.13;1.93;;;-2.40;99.90;;;;;;5048795;28;20182;-78
2021/04/06 05:33:03;;;;;;;6.67;2.27;;;-2.40;99.90;;;;;;5048367;28;20028;-77
2021/04/06 05:35:29;;;;;;;5.93;2.17;;;-2.20;99.90;;;;;;5049460;28;20033;-78
2021/04/06 05:37:54;;;;;;;4.57;2.20;;;-2.10;99.90;;;;;;5045526;28;20035;-78
2021/04/06 05:40:20;;;;;;;6.40;2.60;;;-2.00;99.90;;;;;;5046178;28;20037;-78
2021/04/06 05:42:45;;;;;;;5.03;1.97;;;-2.00;99.90;;;;;;5048910;28;20047;-77
2021/04/06 05:45:11;;;;;;;4.60;2.73;;;-2.10;99.90;;;;;;5047021;28;20020;-78
2021/04/06 05:47:41;;;;;;;7.03;2.53;;;-2.10;99.90;;;;;;5046851;28;20041;-78
2021/04/06 05:50:08;;;;;;;5.43;2.55;;;-1.90;99.90;;;;;;5044484;28;20033;-77
2021/04/06 05:52:34;;;;;;;5.23;2.07;;;-1.70;99.90;;;;;;5038713;28;20566;-76
2021/04/06 05:55:01;;;;;;;6.93;2.90;;;-1.40;99.90;;;;;;5045235;28;20032;-79
2021/04/06 05:57:28;;;;;;;5.67;1.80;;;-1.30;99.90;;;;;;5042153;28;20021;-79
2021/04/06 05:59:53;;;;;;;6.97;2.23;;;-1.30;99.90;;;;;;5045127;28;20090;-78
2021/04/06 06:02:19;;;;;;;3.33;1.83;;;-1.10;99.90;;;;;;5047154;28;20025;-77
2021/04/06 06:04:46;;;;;;;5.40;3.17;;;-0.90;99.90;;;;;;5045630;28;20091;-78
2021/04/06 06:07:12;;;;;;;6.73;2.43;;;-0.50;99.90;;;;;;5042387;28;20025;-78
2021/04/06 06:09:38;;;;;;;4.77;2.60;;;-0.60;99.90;;;;;;5045294;28;20120;-81
2021/04/06 06:12:08;;;;;;;5.63;2.10;;;-0.40;99.90;;;;;;5043829;28;20025;-78
2021/04/06 06:14:47;;;;;;;3.50;1.67;;;-0.10;99.90;;;;;;5045183;28;20033;-80
2021/04/06 06:17:27;;;;;;;4.13;1.65;;;-0.20;99.90;;;;;;5045810;28;20268;-80
2021/04/06 06:19:54;;;;;;;7.47;2.30;;;-0.10;99.90;;;;;;5040422;28;20470;-80
2021/04/06 06:22:30;;;;;;;7.77;2.70;;;0.00;99.90;;;;;;5048834;28;20473;-82
2021/04/06 06:25:07;;;;;;;3.60;1.90;;;0.10;99.90;;;;;;5047678;28;20029;-80
2021/04/06 06:27:39;;;;;;;8.83;2.50;;;-0.20;99.90;;;;;;5049583;28;20033;-81
2021/04/06 06:30:23;;;;;;;2.83;1.13;;;0.00;99.90;;;;;;5049807;28;20040;-80
2021/04/06 06:33:09;;;;;;;5.27;1.87;;;-0.40;99.90;;;;;;5037542;28;20025;-78
2021/04/06 06:35:35;;;;;;;6.00;2.60;;;-0.50;99.90;;;;;;5044556;28;20068;-79
2021/04/06 06:38:21;;;;;;;7.27;2.67;;;-0.70;99.90;;;;;;5030089;28;20410;-80
2021/04/06 06:40:50;;;;;;;4.83;2.03;;;-0.90;99.90;;;;;;5047556;28;20087;-78
2021/04/06 06:43:20;;;;;;;7.90;1.70;;;-0.90;99.90;;;;;;5048264;28;20017;-79
2021/04/06 06:45:48;;;;;;;4.93;2.57;;;-0.90;99.90;;;;;;5050837;28;20083;-78
2021/04/06 06:48:27;;;;;;;2.77;1.50;;;-0.90;99.90;;;;;;5051395;28;20422;-77
2021/04/06 06:50:53;;;;;;;4.17;2.03;;;-1.00;99.90;;;;;;5051454;28;20047;-80
2021/04/06 06:53:34;;;;;;;4.47;2.50;;;-1.00;99.90;;;;;;5048810;28;20287;-76
2021/04/06 06:55:59;;;;;;;5.77;2.73;;;-1.00;99.90;;;;;;5049888;28;20087;-76
2021/04/06 06:58:33;;;;;;;4.47;2.13;;;-0.90;99.90;;;;;;5051716;28;20424;-77
2021/04/06 07:00:59;;;;;;;4.70;2.20;;;-0.90;99.90;;;;;;5040029;28;20033;-76
2021/04/06 07:03:25;;;;;;;6.07;2.47;;;-0.90;99.90;;;;;;5051364;28;20121;-77
2021/04/06 07:05:50;;;;;;;5.83;2.40;;;-0.90;99.90;;;;;;5049041;28;20910;-76
2021/04/06 07:08:29;;;;;;;7.17;2.30;;;-0.80;99.90;;;;;;5050531;28;20025;-76
2021/04/06 07:10:55;;;;;;;16.97;1.73;;;-0.70;99.90;;;;;;5053091;28;20037;-82
2021/04/06 07:13:24;;;;;;;4.73;2.00;;;-0.80;99.90;;;;;;5046547;28;20030;-83
2021/04/06 07:15:51;;;;;;;3.17;1.90;;;-0.60;99.90;;;;;;5043648;28;20041;-83
2021/04/06 07:18:21;;;;;;;2.03;1.47;;;-0.60;99.90;;;;;;5053179;28;20053;-83
2021/04/06 07:21:05;;;;;;;6.37;2.50;;;-0.50;99.90;;;;;;5052125;28;20036;-80
2021/04/06 07:23:52;;;;;;;3.47;1.73;;;-0.20;99.90;;;;;;5034345;28;20036;-82
2021/04/06 07:26:19;;;;;;;3.40;1.50;;;-0.20;99.90;;;;;;5050411;28;20025;-83
2021/04/06 07:28:45;;;;;;;6.07;2.10;;;-0.20;99.90;;;;;;5048018;28;20510;-81
2021/04/06 07:31:14;;;;;;;4.23;1.90;;;-0.30;99.90;;;;;;5050800;28;20484;-78
2021/04/06 07:33:40;;;;;;;2.13;1.38;;;-0.40;99.90;;;;;;5047604;28;20086;-80
2021/04/06 07:36:08;;;;;;;2.30;0.90;;;-0.50;99.90;;;;;;5051127;28;20428;-79
2021/04/06 07:38:37;;;;;;;5.30;1.53;;;-0.50;99.90;;;;;;5050937;28;20017;-78
2021/04/06 07:41:04;;;;;;;4.28;2.15;;;-0.50;99.90;;;;;;5049400;28;20017;-81
2021/04/06 07:43:30;;;;;;;4.40;2.20;;;-0.50;99.90;;;;;;5051609;28;20405;-82
2021/04/06 07:45:56;;;;;;;4.17;1.83;;;-0.40;99.90;;;;;;5051419;28;20108;-82
2021/04/06 07:48:43;;;;;;;4.73;2.27;;;-0.30;99.90;;;;;;5052025;28;20049;-82
2021/04/06 07:51:33;;;;;;;6.57;1.90;;;-0.20;99.90;;;;;;5051982;28;20146;-80
2021/04/06 07:54:05;;;;;;;3.83;1.57;;;-0.10;99.90;;;;;;5015926;28;20112;-82
2021/04/06 07:56:53;;;;;;;2.00;1.27;;;-0.30;99.90;;;;;;5047511;28;20033;-82
2021/04/06 07:59:18;;;;;;;2.43;1.33;;;-0.40;99.90;;;;;;5053079;28;20107;-85
2021/04/06 08:01:50;;;;;;;6.20;2.27;;;-0.40;99.90;;;;;;5042578;28;20108;-81
2021/04/06 08:04:17;;;;;;;4.57;2.07;;;-0.50;99.90;;;;;;5050384;28;20043;-81
2021/04/06 08:06:46;;;;;;;8.60;2.20;;;-0.50;99.90;;;;;;5050543;28;20028;-81
2021/04/06 08:09:31;;;;;;;9.57;2.65;;;-0.40;99.90;;;;;;5044926;28;20144;-82
2021/04/06 08:12:12;;;;;;;2.73;1.70;;;-0.30;99.90;;;;;;5042151;28;20033;-83
2021/04/06 08:14:53;;;;;;;7.23;2.27;;;-0.40;99.90;;;;;;5051048;28;20017;-80
2021/04/06 08:17:28;;;;;;;4.43;2.17;;;-0.40;99.90;;;;;;5029406;28;20029;-83
2021/04/06 08:20:03;;;;;;;4.63;1.70;;;-0.40;99.90;;;;;;5050200;28;20048;-77
2021/04/06 08:22:32;;;;;;;4.67;2.17;;;-0.40;99.90;;;;;;5048372;28;20029;-79
2021/04/06 08:25:16;;;;;;;5.25;2.53;;;-0.40;99.90;;;;;;5050852;28;20032;-81
2021/04/06 08:27:43;;;;;;;12.73;4.00;;;-0.40;99.90;;;;;;5051798;28;20024;-84
2021/04/06 08:30:27;;;;;;;7.80;2.57;;;-0.40;99.90;;;;;;5052950;28;20116;-83
2021/04/06 08:32:58;;;;;;;5.47;2.00;;;-0.40;99.90;;;;;;5056483;28;20032;-86
2021/04/06 08:35:45;;;;;;;7.10;2.03;;;-0.50;99.90;;;;;;5051769;28;20029;-84
2021/04/06 08:38:32;;;;;;;6.57;2.50;;;-0.50;99.90;;;;;;5052055;28;20021;-84
2021/04/06 08:40:59;;;;;;;9.93;2.57;;;-0.40;99.90;;;;;;5034193;28;20029;-82
2021/04/06 08:43:31;;;;;;;7.63;2.80;;;-0.30;99.90;;;;;;5051523;28;20056;-83
2021/04/06 08:46:10;;;;;;;6.27;2.50;;;-0.20;99.90;;;;;;5055386;28;20036;-82
2021/04/06 08:48:46;;;;;;;4.27;2.03;;;0.00;99.90;;;;;;5061145;28;20045;-83
2021/04/06 08:51:27;;;;;;;7.67;2.43;;;-0.10;99.90;;;;;;5051399;28;20412;-86
2021/04/06 08:53:57;;;;;;;6.10;2.20;;;0.00;99.90;;;;;;5051585;28;20025;-86
2021/04/06 08:56:30;;;;;;;2.77;1.43;;;0.00;99.90;;;;;;5049064;28;20036;-84
2021/04/06 08:59:20;;;;;;;4.47;1.97;;;0.00;99.90;;;;;;5033067;28;20052;-82
2021/04/06 09:01:58;;;;;;;5.33;2.23;;;0.00;99.90;;;;;;5056794;28;20029;-85
2021/04/06 09:04:43;;;;;;;6.03;2.33;;;0.10;99.90;;;;;;5042936;28;20017;-82
2021/04/06 09:07:30;;;;;;;3.67;2.00;;;0.10;99.90;;;;;;5053686;28;20033;-82
2021/04/06 09:10:11;;;;;;;5.67;2.50;;;0.40;99.90;;;;;;5037924;28;20037;-84
2021/04/06 09:12:42;;;;;;;4.60;1.87;;;0.50;99.90;;;;;;5048730;28;20032;-82
2021/04/06 09:15:12;;;;;;;6.43;2.10;;;0.80;99.90;;;;;;5020895;28;20480;-83
2021/04/06 09:17:40;;;;;;;3.83;1.83;;;0.70;99.90;;;;;;5060516;28;20435;-83
2021/04/06 09:20:17;;;;;;;5.30;2.13;;;0.70;99.90;;;;;;5043796;28;20022;-83
2021/04/06 09:22:50;;;;;;;4.63;1.70;;;0.40;99.90;;;;;;5053722;28;20029;-85
2021/04/06 09:25:20;;;;;;;8.97;2.53;;;0.60;99.90;;;;;;5035009;28;20132;-84
2021/04/06 09:27:55;;;;;;;5.03;1.80;;;0.70;99.90;;;;;;5056463;28;20033;-84
2021/04/06 09:30:35;;;;;;;5.80;2.03;;;0.60;99.90;;;;;;5051100;28;20263;-79
2021/04/06 09:33:04;;;;;;;9.27;2.43;;;0.60;99.90;;;;;;5050016;28;20025;-81
2021/04/06 09:35:30;;;;;;;8.13;2.22;;;0.90;99.90;;;;;;5053332;28;20033;-85
2021/04/06 09:37:58;;;;;;;9.40;2.57;;;0.90;99.90;;;;;;5057761;28;20047;-85
2021/04/06 09:40:34;;;;;;;3.30;1.40;;;1.10;99.90;;;;;;5061015;28;20071;-88
2021/04/06 09:43:01;;;;;;;5.20;2.20;;;0.80;99.90;;;;;;5057406;28;20047;-83
2021/04/06 09:45:28;;;;;;;8.23;2.17;;;1.10;99.90;;;;;;5054615;28;20060;-83
2021/04/06 09:47:54;;;;;;;9.20;3.07;;;1.20;99.90;;;;;;5054280;28;20028;-84
2021/04/06 09:50:20;;;;;;;4.10;1.80;;;1.30;99.90;;;;;;5057301;28;20041;-85
2021/04/06 09:52:45;;;;;;;4.00;1.77;;;1.00;99.90;;;;;;5037422;28;20109;-85
2021/04/06 09:55:12;;;;;;;4.10;1.83;;;0.90;99.90;;;;;;5056596;28;20098;-86
2021/04/06 09:57:42;;;;;;;3.87;1.70;;;0.80;99.90;;;;;;5048583;28;20421;-83
2021/04/06 10:00:15;;;;;;;5.13;2.13;;;0.90;99.90;;;;;;5058946;28;20492;-84
2021/04/06 10:02:42;;;;;;;8.07;1.93;;;0.80;99.90;;;;;;5051229;28;20029;-84
2021/04/06 10:05:19;;;;;;;5.00;1.83;;;0.90;99.90;;;;;;5065145;28;20021;-87
2021/04/06 10:07:47;;;;;;;4.70;2.40;;;1.20;99.90;;;;;;5044859;28;20040;-86
2021/04/06 10:10:26;;;;;;;6.93;2.20;;;1.40;99.90;;;;;;5062781;28;20041;-90
2021/04/06 10:12:53;;;;;;;7.30;2.38;;;1.20;99.90;;;;;;5045070;28;20029;-84
2021/04/06 10:15:27;;;;;;;6.40;2.33;;;1.40;99.90;;;;;;5056571;28;20033;-90
2021/04/06 10:17:54;;;;;;;6.23;2.30;;;1.80;99.90;;;;;;5038309;28;20110;-82
2021/04/06 10:20:25;;;;;;;3.33;1.77;;;1.50;99.90;;;;;;5061032;28;20021;-83
2021/04/06 10:22:57;;;;;;;11.13;2.60;;;1.60;99.90;;;;;;5074473;28;20017;-81
2021/04/06 10:25:35;;;;;;;6.33;2.40;;;1.90;99.90;;;;;;5048132;28;20115;-86
2021/04/06 10:28:03;;;;;;;3.33;1.47;;;1.50;99.90;;;;;;5038428;28;20037;-85
2021/04/06 10:30:50;;;;;;;4.70;2.40;;;1.50;99.90;;;;;;5064966;28;20033;-89
2021/04/06 10:33:19;;;;;;;6.73;2.50;;;1.30;99.90;;;;;;5059574;28;20063;-81
2021/04/06 10:35:50;;;;;;;5.10;2.00;;;1.50;99.90;;;;;;5054739;28;20384;-80
2021/04/06 10:38:29;;;;;;;6.33;2.27;;;1.50;99.90;;;;;;5054364;28;20056;-80
2021/04/06 10:41:08;;;;;;;9.13;2.67;;;1.50;99.90;;;;;;5057177;28;20051;-81
2021/04/06 10:43:35;;;;;;;3.92;1.58;;;1.40;99.90;;;;;;5057196;28;20459;-81
2021/04/06 10:46:05;;;;;;;4.93;2.17;;;1.50;99.90;;;;;;5032792;28;20599;-83
2021/04/06 10:48:34;;;;;;;6.00;2.07;;;1.40;99.90;;;;;;5052364;28;20041;-81
2021/04/06 10:51:17;;;;;;;5.40;2.40;;;1.30;99.90;;;;;;5052456;28;20419;-82
2021/04/06 10:53:46;;;;;;;6.87;2.07;;;1.10;99.90;;;;;;5052670;28;20029;-82
2021/04/06 10:56:21;;;;;;;6.00;2.47;;;1.10;99.90;;;;;;5033950;28;20037;-82
2021/04/06 10:58:50;;;;;;;5.40;2.20;;;1.30;99.90;;;;;;5055599;28;20372;-81
2021/04/06 11:01:19;;;;;;;6.97;1.90;;;1.30;99.90;;;;;;5052952;28;20033;-83
2021/04/06 11:03:47;;;;;;;5.43;2.63;;;1.50;99.90;;;;;;5052118;28;20453;-81
2021/04/06 11:06:20;;;;;;;4.83;2.37;;;1.80;99.90;;;;;;5062362;28;20078;-80
2021/04/06 11:08:51;;;;;;;4.30;1.57;;;1.90;99.90;;;;;;5055401;28;20075;-83
2021/04/06 11:11:32;;;;;;;4.53;2.33;;;1.80;99.90;;;;;;5055690;28;20041;-79
2021/04/06 11:14:06;;;;;;;5.67;2.50;;;1.60;99.90;;;;;;5052078;28;20532;-81
2021/04/06 11:16:33;;;;;;;6.47;2.30;;;2.00;99.90;;;;;;5053976;28;20031;-80
2021/04/06 11:19:01;;;;;;;6.70;2.73;;;1.80;99.90;;;;;;5051945;28;20021;-77
2021/04/06 11:21:27;;;;;;;6.03;2.87;;;2.10;99.90;;;;;;5062154;28;20029;-82
2021/04/06 11:23:53;;;;;;;5.20;2.10;;;2.00;99.90;;;;;;5061621;28;20029;-83
2021/04/06 11:26:19;;;;;;;6.47;2.10;;;1.90;99.90;;;;;;5046625;28;20067;-81
2021/04/06 11:28:45;;;;;;;8.93;3.30;;;2.10;99.90;;;;;;5067926;28;20136;-79
2021/04/06 11:31:11;;;;;;;6.93;2.53;;;2.10;99.90;;;;;;5035130;28;20041;-84
2021/04/06 11:33:37;;;;;;;12.70;2.57;;;2.30;99.90;;;;;;5033829;28;20111;-86
2021/04/06 11:36:03;;;;;;;6.13;2.13;;;2.70;99.90;;;;;;5051902;28;20078;-82
2021/04/06 11:38:29;;;;;;;3.13;1.67;;;2.50;99.90;;;;;;5051684;28;20063;-82
2021/04/06 11:40:54;;;;;;;6.83;2.73;;;2.20;99.90;;;;;;5051878;28;20033;-81
2021/04/06 11:43:20;;;;;;;3.10;1.77;;;2.40;99.90;;;;;;5050462;28;20064;-83
2021/04/06 11:45:46;;;;;;;5.43;1.97;;;2.70;99.90;;;;;;5050738;28;20110;-82
2021/04/06 11:48:12;;;;;;;7.47;2.60;;;2.30;99.90;;;;;;5051201;28;20052;-81
2021/04/06 11:50:37;;;;;;;7.77;2.33;;;2.20;99.90;;;;;;5051285;28;20071;-84
2021/04/06 11:53:03;;;;;;;4.27;2.00;;;2.60;99.90;;;;;;5049669;28;20044;-88
2021/04/06 11:55:29;;;;;;;6.97;2.70;;;2.60;99.90;;;;;;5051664;28;20093;-81
2021/04/06 11:57:54;;;;;;;3.33;1.53;;;2.60;99.90;;;;;;5047774;28;20036;-77
2021/04/06 12:00:20;;;;;;;5.27;2.20;;;2.10;99.90;;;;;;5044770;28;20028;-78
2021/04/06 12:02:46;;;;;;;5.90;2.00;;;2.30;99.90;;;;;;5043462;28;20032;-79
2021/04/06 12:05:12;;;;;;;7.33;2.27;;;2.40;99.90;;;;;;5044046;28;20040;-81
2021/04/06 12:07:38;;;;;;;4.67;1.83;;;2.40;99.90;;;;;;5026913;28;20036;-80
2021/04/06 12:10:05;;;;;;;6.00;2.40;;;2.50;99.90;;;;;;5049315;28;20413;-78
2021/04/06 12:12:31;;;;;;;5.73;2.20;;;2.50;99.90;;;;;;5050302;28;20021;-80
2021/04/06 12:14:56;;;;;;;6.50;2.27;;;2.70;99.90;;;;;;5024967;28;20037;-80
2021/04/06 12:17:22;;;;;;;5.37;2.23;;;2.70;99.90;;;;;;5032237;28;20048;-80
2021/04/06 12:19:48;;;;;;;7.40;1.83;;;2.70;99.90;;;;;;5050029;28;20040;-79
2021/04/06 12:22:13;;;;;;;3.67;1.57;;;2.30;99.90;;;;;;5050177;28;20025;-82
2021/04/06 12:24:39;;;;;;;3.77;2.17;;;2.00;99.90;;;;;;5048848;28;20045;-80
2021/04/06 12:27:05;;;;;;;5.10;2.23;;;1.80;99.90;;;;;;5029345;28;20128;-80
2021/04/06 12:29:31;;;;;;;8.70;2.47;;;1.30;99.90;;;;;;5050118;28;20552;-81
2021/04/06 12:31:56;;;;;;;10.20;2.60;;;1.00;99.90;;;;;;5049218;28;20044;-82
2021/04/06 12:34:22;;;;;;;9.50;2.90;;;0.70;99.90;;;;;;5048965;28;20445;-78
2021/04/06 12:36:48;;;;;;;7.73;3.00;;;0.60;99.90;;;;;;5047875;28;20025;-78
2021/04/06 12:39:14;;;;;;;7.07;2.80;;;0.60;99.90;;;;;;5048550;28;20017;-79
2021/04/06 12:41:39;;;;;;;8.83;3.20;;;0.70;99.90;;;;;;5050475;28;20037;-81
2021/04/06 12:44:05;;;;;;;6.60;3.37;;;0.80;99.90;;;;;;5046318;28;20023;-80
2021/04/06 12:46:31;;;;;;;10.87;2.97;;;1.10;99.90;;;;;;5049333;28;20100;-81
2021/04/06 12:48:57;;;;;;;6.43;2.77;;;1.20;99.90;;;;;;5050081;28;20071;-79
2021/04/06 12:51:23;;;;;;;6.03;3.00;;;1.30;99.90;;;;;;5048672;28;20033;-78
2021/04/06 12:53:48;;;;;;;6.47;3.30;;;1.20;99.90;;;;;;5030136;28;20963;-79
2021/04/06 12:56:14;;;;;;;7.20;3.40;;;1.10;99.90;;;;;;5049020;28;20472;-78
2021/04/06 12:58:40;;;;;;;7.13;3.17;;;1.00;99.90;;;;;;5045799;28;20033;-77
2021/04/06 13:01:05;;;;;;;9.43;3.00;;;0.90;99.90;;;;;;5044137;28;20029;-78
2021/04/06 13:03:31;;;;;;;5.30;3.00;;;0.70;99.90;;;;;;5048891;28;20052;-79
2021/04/06 13:05:56;;;;;;;6.47;3.27;;;0.80;99.90;;;;;;5049223;28;20036;-80